Colfontaine, Belgium
Current Conditions -  °F | °C
As of 9:08 PM on Sunday 25 Jan 2015 (Local Time) from EBCV Reporting Station
Overcast Overcast  
Wind Chill: 34°   Ceiling: 2900
Heat Index: 39°   Visibility: 4mi
Dew Point: 37°   Wind: 8mph
Humidity: 93%   Direction: 200°SSW
Pressure: 30.39"   Gusts: NA
Location:  50.41°N, 3.86°E
Report Text: EBCV 252008Z AUTO 20007KT 7000 OVC029/// 04/03 Q1029 WHT
Loading
Personal Weather Stations






























Interactive Weather Map New forecast layout! Learn more

10-Day Weather Forecast

Advertisements
Track Severe Weather on mobile